sensor_id;sensor_type;location;lat;lon;timestamp;temperature;humidity
40053;DHT22;25758;48.200;16.338;2023-07-20T00:01:26;23.60;86.90
40053;DHT22;25758;48.200;16.338;2023-07-20T00:03:51;23.60;87.30
40053;DHT22;25758;48.200;16.338;2023-07-20T00:06:24;23.70;86.70
40053;DHT22;25758;48.200;16.338;2023-07-20T00:08:50;23.70;86.80
40053;DHT22;25758;48.200;16.338;2023-07-20T00:11:16;23.80;87.00
40053;DHT22;25758;48.200;16.338;2023-07-20T00:13:42;23.80;86.40
40053;DHT22;25758;48.200;16.338;2023-07-20T00:16:08;23.80;86.00
40053;DHT22;25758;48.200;16.338;2023-07-20T00:18:33;23.90;85.70
40053;DHT22;25758;48.200;16.338;2023-07-20T00:20:59;23.90;85.50
40053;DHT22;25758;48.200;16.338;2023-07-20T00:23:28;23.90;85.40
40053;DHT22;25758;48.200;16.338;2023-07-20T00:25:53;23.80;85.20
40053;DHT22;25758;48.200;16.338;2023-07-20T00:28:19;23.90;85.80
40053;DHT22;25758;48.200;16.338;2023-07-20T00:30:45;23.90;85.40
40053;DHT22;25758;48.200;16.338;2023-07-20T00:33:11;24.00;85.70
40053;DHT22;25758;48.200;16.338;2023-07-20T00:35:40;23.90;84.90
40053;DHT22;25758;48.200;16.338;2023-07-20T00:38:06;24.00;85.50
40053;DHT22;25758;48.200;16.338;2023-07-20T00:40:38;23.90;85.60
40053;DHT22;25758;48.200;16.338;2023-07-20T00:43:04;24.00;86.10
40053;DHT22;25758;48.200;16.338;2023-07-20T00:45:31;23.90;86.40
40053;DHT22;25758;48.200;16.338;2023-07-20T00:47:58;23.80;86.90
40053;DHT22;25758;48.200;16.338;2023-07-20T00:50:25;23.80;87.90
40053;DHT22;25758;48.200;16.338;2023-07-20T00:52:51;23.80;88.50
40053;DHT22;25758;48.200;16.338;2023-07-20T00:55:18;23.70;89.00
40053;DHT22;25758;48.200;16.338;2023-07-20T00:57:44;23.60;89.40
40053;DHT22;25758;48.200;16.338;2023-07-20T01:00:10;23.50;90.10
40053;DHT22;25758;48.200;16.338;2023-07-20T01:02:36;23.30;90.10
40053;DHT22;25758;48.200;16.338;2023-07-20T01:05:02;23.40;90.50
40053;DHT22;25758;48.200;16.338;2023-07-20T01:10:01;23.50;90.60
40053;DHT22;25758;48.200;16.338;2023-07-20T01:12:35;23.60;90.40
40053;DHT22;25758;48.200;16.338;2023-07-20T01:15:05;23.60;90.40
40053;DHT22;25758;48.200;16.338;2023-07-20T01:17:33;23.70;90.20
40053;DHT22;25758;48.200;16.338;2023-07-20T01:19:59;23.60;90.20
40053;DHT22;25758;48.200;16.338;2023-07-20T01:33:18;23.70;88.80
40053;DHT22;25758;48.200;16.338;2023-07-20T01:35:47;23.70;88.80
40053;DHT22;25758;48.200;16.338;2023-07-20T01:38:14;23.70;89.00
40053;DHT22;25758;48.200;16.338;2023-07-20T01:40:41;23.60;88.70
40053;DHT22;25758;48.200;16.338;2023-07-20T01:43:06;23.60;88.70
40053;DHT22;25758;48.200;16.338;2023-07-20T01:45:32;23.60;89.10
40053;DHT22;25758;48.200;16.338;2023-07-20T01:47:57;23.70;89.30
40053;DHT22;25758;48.200;16.338;2023-07-20T01:50:23;23.50;89.70
40053;DHT22;25758;48.200;16.338;2023-07-20T01:52:49;23.30;90.20
40053;DHT22;25758;48.200;16.338;2023-07-20T01:55:14;23.30;90.50
40053;DHT22;25758;48.200;16.338;2023-07-20T01:57:40;23.30;90.60
40053;DHT22;25758;48.200;16.338;2023-07-20T02:00:06;23.20;90.50
40053;DHT22;25758;48.200;16.338;2023-07-20T02:02:32;23.20;90.80
40053;DHT22;25758;48.200;16.338;2023-07-20T02:04:58;23.10;91.00
40053;DHT22;25758;48.200;16.338;2023-07-20T02:07:23;23.10;90.90
40053;DHT22;25758;48.200;16.338;2023-07-20T02:09:49;23.10;91.20
40053;DHT22;25758;48.200;16.338;2023-07-20T02:12:15;23.20;91.10
40053;DHT22;25758;48.200;16.338;2023-07-20T02:14:40;23.20;91.20
40053;DHT22;25758;48.200;16.338;2023-07-20T02:17:06;23.30;91.20
40053;DHT22;25758;48.200;16.338;2023-07-20T02:19:31;23.30;91.50
40053;DHT22;25758;48.200;16.338;2023-07-20T02:21:57;23.30;91.10
40053;DHT22;25758;48.200;16.338;2023-07-20T02:24:23;23.30;91.00
40053;DHT22;25758;48.200;16.338;2023-07-20T02:26:50;23.30;91.10
40053;DHT22;25758;48.200;16.338;2023-07-20T02:29:16;23.20;91.20
40053;DHT22;25758;48.200;16.338;2023-07-20T02:31:41;23.20;91.20
40053;DHT22;25758;48.200;16.338;2023-07-20T02:34:08;23.30;91.10
40053;DHT22;25758;48.200;16.338;2023-07-20T02:36:35;23.20;91.20
40053;DHT22;25758;48.200;16.338;2023-07-20T02:39:00;23.10;91.20
40053;DHT22;25758;48.200;16.338;2023-07-20T02:41:28;23.10;91.20
40053;DHT22;25758;48.200;16.338;2023-07-20T02:43:54;23.20;91.10
40053;DHT22;25758;48.200;16.338;2023-07-20T02:46:20;23.20;91.50
40053;DHT22;25758;48.200;16.338;2023-07-20T02:48:45;23.30;91.10
40053;DHT22;25758;48.200;16.338;2023-07-20T02:51:11;23.20;91.00
40053;DHT22;25758;48.200;16.338;2023-07-20T02:53:37;23.30;91.10
40053;DHT22;25758;48.200;16.338;2023-07-20T02:56:03;23.20;91.20
40053;DHT22;25758;48.200;16.338;2023-07-20T02:58:29;23.00;91.50
40053;DHT22;25758;48.200;16.338;2023-07-20T03:00:55;23.10;91.60
40053;DHT22;25758;48.200;16.338;2023-07-20T03:03:20;22.90;91.90
40053;DHT22;25758;48.200;16.338;2023-07-20T03:05:46;22.80;92.10
40053;DHT22;25758;48.200;16.338;2023-07-20T03:08:11;22.80;92.10
40053;DHT22;25758;48.200;16.338;2023-07-20T03:10:40;22.90;92.10
40053;DHT22;25758;48.200;16.338;2023-07-20T03:13:06;22.90;92.10
40053;DHT22;25758;48.200;16.338;2023-07-20T03:15:33;22.90;92.20
40053;DHT22;25758;48.200;16.338;2023-07-20T03:17:59;22.80;91.90
40053;DHT22;25758;48.200;16.338;2023-07-20T03:20:25;22.70;92.20
40053;DHT22;25758;48.200;16.338;2023-07-20T03:22:51;22.90;92.10
40053;DHT22;25758;48.200;16.338;2023-07-20T03:25:16;22.70;92.10
40053;DHT22;25758;48.200;16.338;2023-07-20T03:27:43;22.80;91.90
40053;DHT22;25758;48.200;16.338;2023-07-20T03:30:09;22.60;91.90
40053;DHT22;25758;48.200;16.338;2023-07-20T03:32:35;22.60;92.20
40053;DHT22;25758;48.200;16.338;2023-07-20T03:35:01;22.70;92.00
40053;DHT22;25758;48.200;16.338;2023-07-20T03:37:27;22.70;91.90
40053;DHT22;25758;48.200;16.338;2023-07-20T03:39:52;22.80;91.70
40053;DHT22;25758;48.200;16.338;2023-07-20T03:42:18;22.90;91.80
40053;DHT22;25758;48.200;16.338;2023-07-20T03:44:44;22.70;91.80
40053;DHT22;25758;48.200;16.338;2023-07-20T03:47:09;22.80;91.70
40053;DHT22;25758;48.200;16.338;2023-07-20T03:49:35;22.80;91.80
40053;DHT22;25758;48.200;16.338;2023-07-20T03:52:01;22.90;91.90
40053;DHT22;25758;48.200;16.338;2023-07-20T03:54:29;22.80;91.90
40053;DHT22;25758;48.200;16.338;2023-07-20T03:56:54;22.80;92.10
40053;DHT22;25758;48.200;16.338;2023-07-20T03:59:20;22.60;92.30
40053;DHT22;25758;48.200;16.338;2023-07-20T04:01:46;22.60;92.40
40053;DHT22;25758;48.200;16.338;2023-07-20T04:04:13;22.50;92.60
40053;DHT22;25758;48.200;16.338;2023-07-20T04:06:38;22.50;92.70
40053;DHT22;25758;48.200;16.338;2023-07-20T04:09:04;22.40;92.90
40053;DHT22;25758;48.200;16.338;2023-07-20T04:11:32;22.50;92.80
40053;DHT22;25758;48.200;16.338;2023-07-20T04:13:58;22.60;92.90
40053;DHT22;25758;48.200;16.338;2023-07-20T04:16:24;22.50;92.90
40053;DHT22;25758;48.200;16.338;2023-07-20T04:18:50;22.60;92.90
40053;DHT22;25758;48.200;16.338;2023-07-20T04:21:15;22.70;92.90
40053;DHT22;25758;48.200;16.338;2023-07-20T04:23:41;22.70;92.90
40053;DHT22;25758;48.200;16.338;2023-07-20T04:26:07;22.80;92.80
40053;DHT22;25758;48.200;16.338;2023-07-20T04:28:33;22.70;93.20
40053;DHT22;25758;48.200;16.338;2023-07-20T04:31:15;22.80;93.20
40053;DHT22;25758;48.200;16.338;2023-07-20T04:33:41;22.90;93.00
40053;DHT22;25758;48.200;16.338;2023-07-20T04:36:07;22.90;93.20
40053;DHT22;25758;48.200;16.338;2023-07-20T04:38:33;22.90;93.00
40053;DHT22;25758;48.200;16.338;2023-07-20T04:40:59;22.90;93.20
40053;DHT22;25758;48.200;16.338;2023-07-20T04:43:24;22.90;93.50
40053;DHT22;25758;48.200;16.338;2023-07-20T04:45:50;22.90;93.40
40053;DHT22;25758;48.200;16.338;2023-07-20T04:48:17;22.90;93.40
40053;DHT22;25758;48.200;16.338;2023-07-20T04:50:43;22.90;93.40
40053;DHT22;25758;48.200;16.338;2023-07-20T04:53:10;22.70;93.70
40053;DHT22;25758;48.200;16.338;2023-07-20T04:55:40;22.90;93.50
40053;DHT22;25758;48.200;16.338;2023-07-20T04:58:06;22.70;93.80
40053;DHT22;25758;48.200;16.338;2023-07-20T05:00:33;22.60;94.00
40053;DHT22;25758;48.200;16.338;2023-07-20T05:05:25;22.70;93.90
40053;DHT22;25758;48.200;16.338;2023-07-20T05:07:51;22.70;94.30
40053;DHT22;25758;48.200;16.338;2023-07-20T05:10:17;22.60;94.30
40053;DHT22;25758;48.200;16.338;2023-07-20T05:12:43;22.70;94.00
40053;DHT22;25758;48.200;16.338;2023-07-20T05:15:09;22.90;94.10
40053;DHT22;25758;48.200;16.338;2023-07-20T05:17:35;22.90;93.70
40053;DHT22;25758;48.200;16.338;2023-07-20T05:20:01;22.90;94.00
40053;DHT22;25758;48.200;16.338;2023-07-20T05:22:26;22.90;94.00
40053;DHT22;25758;48.200;16.338;2023-07-20T05:24:52;23.00;93.90
40053;DHT22;25758;48.200;16.338;2023-07-20T05:27:18;23.10;93.90
40053;DHT22;25758;48.200;16.338;2023-07-20T05:29:44;23.10;93.90
40053;DHT22;25758;48.200;16.338;2023-07-20T05:32:10;23.20;93.70
40053;DHT22;25758;48.200;16.338;2023-07-20T05:34:35;23.00;94.00
40053;DHT22;25758;48.200;16.338;2023-07-20T05:37:01;23.10;93.90
40053;DHT22;25758;48.200;16.338;2023-07-20T05:39:27;23.10;94.10
40053;DHT22;25758;48.200;16.338;2023-07-20T05:41:52;23.30;93.90
40053;DHT22;25758;48.200;16.338;2023-07-20T05:44:18;23.20;93.80
40053;DHT22;25758;48.200;16.338;2023-07-20T05:49:10;23.30;93.60
40053;DHT22;25758;48.200;16.338;2023-07-20T05:51:35;23.40;93.70
40053;DHT22;25758;48.200;16.338;2023-07-20T05:54:01;23.50;93.60
40053;DHT22;25758;48.200;16.338;2023-07-20T05:56:27;23.50;93.50
40053;DHT22;25758;48.200;16.338;2023-07-20T05:58:53;23.50;93.50
40053;DHT22;25758;48.200;16.338;2023-07-20T06:01:18;23.50;93.60
40053;DHT22;25758;48.200;16.338;2023-07-20T06:03:44;23.40;93.50
40053;DHT22;25758;48.200;16.338;2023-07-20T06:06:10;23.50;93.50
40053;DHT22;25758;48.200;16.338;2023-07-20T06:08:37;23.60;93.30
40053;DHT22;25758;48.200;16.338;2023-07-20T06:11:03;23.70;93.20
40053;DHT22;25758;48.200;16.338;2023-07-20T06:13:29;23.70;92.90
40053;DHT22;25758;48.200;16.338;2023-07-20T06:15:55;23.70;92.60
40053;DHT22;25758;48.200;16.338;2023-07-20T06:18:23;23.70;92.70
40053;DHT22;25758;48.200;16.338;2023-07-20T06:20:50;23.80;92.70
40053;DHT22;25758;48.200;16.338;2023-07-20T06:23:17;23.80;92.60
40053;DHT22;25758;48.200;16.338;2023-07-20T06:25:42;23.90;92.50
40053;DHT22;25758;48.200;16.338;2023-07-20T06:28:08;23.90;92.10
40053;DHT22;25758;48.200;16.338;2023-07-20T06:30:34;24.00;91.90
40053;DHT22;25758;48.200;16.338;2023-07-20T06:33:00;24.00;92.00
40053;DHT22;25758;48.200;16.338;2023-07-20T06:35:25;23.90;92.10
40053;DHT22;25758;48.200;16.338;2023-07-20T06:37:51;23.90;92.30
40053;DHT22;25758;48.200;16.338;2023-07-20T06:40:17;23.90;92.10
40053;DHT22;25758;48.200;16.338;2023-07-20T06:42:43;23.90;92.30
40053;DHT22;25758;48.200;16.338;2023-07-20T06:45:09;23.90;92.30
40053;DHT22;25758;48.200;16.338;2023-07-20T06:47:34;24.00;92.40
40053;DHT22;25758;48.200;16.338;2023-07-20T06:50:00;24.10;92.20
40053;DHT22;25758;48.200;16.338;2023-07-20T06:52:26;23.90;92.30
40053;DHT22;25758;48.200;16.338;2023-07-20T06:54:51;24.10;92.40
40053;DHT22;25758;48.200;16.338;2023-07-20T06:57:17;24.20;92.20
40053;DHT22;25758;48.200;16.338;2023-07-20T06:59:43;24.20;92.10
40053;DHT22;25758;48.200;16.338;2023-07-20T07:02:08;24.30;91.70
40053;DHT22;25758;48.200;16.338;2023-07-20T07:04:34;24.40;91.60
40053;DHT22;25758;48.200;16.338;2023-07-20T07:06:59;24.40;91.60
40053;DHT22;25758;48.200;16.338;2023-07-20T07:09:25;24.30;91.60
40053;DHT22;25758;48.200;16.338;2023-07-20T07:11:51;24.40;91.50
40053;DHT22;25758;48.200;16.338;2023-07-20T07:14:20;24.50;91.70
40053;DHT22;25758;48.200;16.338;2023-07-20T07:16:46;24.50;91.80
40053;DHT22;25758;48.200;16.338;2023-07-20T07:19:12;24.30;91.70
40053;DHT22;25758;48.200;16.338;2023-07-20T07:21:37;24.40;91.90
40053;DHT22;25758;48.200;16.338;2023-07-20T07:24:03;24.40;91.60
40053;DHT22;25758;48.200;16.338;2023-07-20T07:26:29;24.30;91.80
40053;DHT22;25758;48.200;16.338;2023-07-20T07:28:54;24.40;91.80
40053;DHT22;25758;48.200;16.338;2023-07-20T07:31:20;24.50;91.80
40053;DHT22;25758;48.200;16.338;2023-07-20T07:33:46;24.60;91.60
40053;DHT22;25758;48.200;16.338;2023-07-20T07:36:11;24.40;91.60
40053;DHT22;25758;48.200;16.338;2023-07-20T07:38:37;24.30;91.80
40053;DHT22;25758;48.200;16.338;2023-07-20T07:41:03;24.40;91.90
40053;DHT22;25758;48.200;16.338;2023-07-20T07:43:29;24.30;92.00
40053;DHT22;25758;48.200;16.338;2023-07-20T07:45:55;24.50;92.00
40053;DHT22;25758;48.200;16.338;2023-07-20T07:48:21;24.70;92.10
40053;DHT22;25758;48.200;16.338;2023-07-20T07:50:47;24.80;91.90
40053;DHT22;25758;48.200;16.338;2023-07-20T07:53:13;24.90;91.80
40053;DHT22;25758;48.200;16.338;2023-07-20T07:55:38;25.00;91.60
40053;DHT22;25758;48.200;16.338;2023-07-20T07:58:04;25.10;91.40
40053;DHT22;25758;48.200;16.338;2023-07-20T08:00:30;25.30;91.40
40053;DHT22;25758;48.200;16.338;2023-07-20T08:02:56;25.40;91.20
40053;DHT22;25758;48.200;16.338;2023-07-20T08:05:21;25.70;91.10
40053;DHT22;25758;48.200;16.338;2023-07-20T08:07:47;26.00;90.80
40053;DHT22;25758;48.200;16.338;2023-07-20T08:10:13;26.10;90.10
40053;DHT22;25758;48.200;16.338;2023-07-20T08:12:38;25.50;90.30
40053;DHT22;25758;48.200;16.338;2023-07-20T08:15:04;25.80;90.50
40053;DHT22;25758;48.200;16.338;2023-07-20T08:17:30;25.90;90.10
40053;DHT22;25758;48.200;16.338;2023-07-20T08:19:56;26.40;90.10
40053;DHT22;25758;48.200;16.338;2023-07-20T08:22:21;26.90;88.80
40053;DHT22;25758;48.200;16.338;2023-07-20T08:24:47;27.10;87.40
40053;DHT22;25758;48.200;16.338;2023-07-20T08:27:13;27.10;86.90
40053;DHT22;25758;48.200;16.338;2023-07-20T08:29:38;26.80;86.60
40053;DHT22;25758;48.200;16.338;2023-07-20T08:32:05;26.30;86.30
40053;DHT22;25758;48.200;16.338;2023-07-20T08:34:31;26.20;87.20
40053;DHT22;25758;48.200;16.338;2023-07-20T08:36:58;26.10;87.90
40053;DHT22;25758;48.200;16.338;2023-07-20T08:39:24;26.20;88.30
40053;DHT22;25758;48.200;16.338;2023-07-20T08:41:50;26.30;88.40
40053;DHT22;25758;48.200;16.338;2023-07-20T08:44:17;26.30;88.40
40053;DHT22;25758;48.200;16.338;2023-07-20T08:46:42;26.30;88.20
40053;DHT22;25758;48.200;16.338;2023-07-20T08:49:09;26.40;88.20
40053;DHT22;25758;48.200;16.338;2023-07-20T08:51:36;26.40;88.00
40053;DHT22;25758;48.200;16.338;2023-07-20T08:54:02;26.50;88.10
40053;DHT22;25758;48.200;16.338;2023-07-20T08:56:29;26.50;88.00
40053;DHT22;25758;48.200;16.338;2023-07-20T08:58:57;26.40;87.70
40053;DHT22;25758;48.200;16.338;2023-07-20T09:01:24;26.40;87.90
40053;DHT22;25758;48.200;16.338;2023-07-20T09:03:50;26.40;87.90
40053;DHT22;25758;48.200;16.338;2023-07-20T09:06:15;26.50;88.10
40053;DHT22;25758;48.200;16.338;2023-07-20T09:08:42;26.50;87.80
40053;DHT22;25758;48.200;16.338;2023-07-20T09:11:09;26.50;87.90
40053;DHT22;25758;48.200;16.338;2023-07-20T09:13:35;26.70;87.70
40053;DHT22;25758;48.200;16.338;2023-07-20T09:16:01;26.90;87.40
40053;DHT22;25758;48.200;16.338;2023-07-20T09:18:31;27.00;86.90
40053;DHT22;25758;48.200;16.338;2023-07-20T09:21:02;27.00;86.20
40053;DHT22;25758;48.200;16.338;2023-07-20T09:23:36;27.00;85.50
40053;DHT22;25758;48.200;16.338;2023-07-20T09:26:12;26.50;86.30
40053;DHT22;25758;48.200;16.338;2023-07-20T09:28:43;26.60;86.70
40053;DHT22;25758;48.200;16.338;2023-07-20T09:31:17;26.70;86.60
40053;DHT22;25758;48.200;16.338;2023-07-20T09:33:43;26.70;86.80
40053;DHT22;25758;48.200;16.338;2023-07-20T09:36:09;26.60;86.50
40053;DHT22;25758;48.200;16.338;2023-07-20T09:38:37;26.70;86.70
40053;DHT22;25758;48.200;16.338;2023-07-20T09:41:05;26.70;86.80
40053;DHT22;25758;48.200;16.338;2023-07-20T09:43:31;26.60;87.00
40053;DHT22;25758;48.200;16.338;2023-07-20T09:45:58;26.70;85.90
40053;DHT22;25758;48.200;16.338;2023-07-20T09:48:25;26.50;84.80
40053;DHT22;25758;48.200;16.338;2023-07-20T09:50:53;26.10;84.70
40053;DHT22;25758;48.200;16.338;2023-07-20T09:53:19;26.20;84.60
40053;DHT22;25758;48.200;16.338;2023-07-20T09:55:46;26.20;84.60
40053;DHT22;25758;48.200;16.338;2023-07-20T09:58:13;26.20;84.90
40053;DHT22;25758;48.200;16.338;2023-07-20T10:00:39;26.20;84.40
40053;DHT22;25758;48.200;16.338;2023-07-20T10:03:06;26.30;85.50
40053;DHT22;25758;48.200;16.338;2023-07-20T10:05:43;26.50;85.40
40053;DHT22;25758;48.200;16.338;2023-07-20T10:08:11;26.50;83.90
40053;DHT22;25758;48.200;16.338;2023-07-20T10:10:39;26.80;83.80
40053;DHT22;25758;48.200;16.338;2023-07-20T10:13:09;26.80;83.30
40053;DHT22;25758;48.200;16.338;2023-07-20T10:15:58;26.90;83.40
40053;DHT22;25758;48.200;16.338;2023-07-20T10:20:51;26.80;83.40
40053;DHT22;25758;48.200;16.338;2023-07-20T10:23:17;26.90;83.30
40053;DHT22;25758;48.200;16.338;2023-07-20T10:25:43;26.90;81.30
40053;DHT22;25758;48.200;16.338;2023-07-20T10:28:11;26.70;81.60
40053;DHT22;25758;48.200;16.338;2023-07-20T10:30:37;26.80;82.60
40053;DHT22;25758;48.200;16.338;2023-07-20T10:33:04;26.80;81.20
40053;DHT22;25758;48.200;16.338;2023-07-20T10:35:31;26.60;81.40
40053;DHT22;25758;48.200;16.338;2023-07-20T10:38:15;26.50;82.00
40053;DHT22;25758;48.200;16.338;2023-07-20T10:40:41;26.70;81.80
40053;DHT22;25758;48.200;16.338;2023-07-20T10:43:09;27.00;80.90
40053;DHT22;25758;48.200;16.338;2023-07-20T10:45:47;27.20;81.30
40053;DHT22;25758;48.200;16.338;2023-07-20T10:48:22;27.50;80.50
40053;DHT22;25758;48.200;16.338;2023-07-20T10:51:22;27.40;81.20
40053;DHT22;25758;48.200;16.338;2023-07-20T10:53:49;27.50;79.60
40053;DHT22;25758;48.200;16.338;2023-07-20T10:56:23;27.50;79.90
40053;DHT22;25758;48.200;16.338;2023-07-20T10:58:49;27.50;78.60
40053;DHT22;25758;48.200;16.338;2023-07-20T11:01:17;27.50;78.20
40053;DHT22;25758;48.200;16.338;2023-07-20T11:03:43;27.40;79.10
40053;DHT22;25758;48.200;16.338;2023-07-20T11:11:34;27.90;77.20
40053;DHT22;25758;48.200;16.338;2023-07-20T11:14:02;27.90;77.70
40053;DHT22;25758;48.200;16.338;2023-07-20T11:19:04;28.00;77.20
40053;DHT22;25758;48.200;16.338;2023-07-20T11:21:36;28.00;76.20
40053;DHT22;25758;48.200;16.338;2023-07-20T11:24:06;27.90;76.20
40053;DHT22;25758;48.200;16.338;2023-07-20T11:26:43;28.00;76.40
40053;DHT22;25758;48.200;16.338;2023-07-20T11:29:09;28.10;76.00
40053;DHT22;25758;48.200;16.338;2023-07-20T11:31:40;28.00;76.40
40053;DHT22;25758;48.200;16.338;2023-07-20T11:34:07;27.90;76.80
40053;DHT22;25758;48.200;16.338;2023-07-20T11:36:33;28.00;76.40
40053;DHT22;25758;48.200;16.338;2023-07-20T11:38:59;28.20;77.30
40053;DHT22;25758;48.200;16.338;2023-07-20T11:41:25;28.10;76.40
40053;DHT22;25758;48.200;16.338;2023-07-20T11:43:52;28.10;75.90
40053;DHT22;25758;48.200;16.338;2023-07-20T11:46:19;28.20;76.20
40053;DHT22;25758;48.200;16.338;2023-07-20T11:48:45;28.30;75.70
40053;DHT22;25758;48.200;16.338;2023-07-20T11:51:16;28.30;74.90
40053;DHT22;25758;48.200;16.338;2023-07-20T11:53:47;28.40;75.80
40053;DHT22;25758;48.200;16.338;2023-07-20T11:56:12;28.30;75.40
40053;DHT22;25758;48.200;16.338;2023-07-20T11:58:45;28.40;75.10
40053;DHT22;25758;48.200;16.338;2023-07-20T12:01:12;27.90;74.80
40053;DHT22;25758;48.200;16.338;2023-07-20T12:03:38;27.90;75.30
40053;DHT22;25758;48.200;16.338;2023-07-20T12:06:08;28.10;75.40
40053;DHT22;25758;48.200;16.338;2023-07-20T12:08:34;28.00;75.30
40053;DHT22;25758;48.200;16.338;2023-07-20T12:11:00;28.00;75.40
40053;DHT22;25758;48.200;16.338;2023-07-20T12:13:41;28.00;75.60
40053;DHT22;25758;48.200;16.338;2023-07-20T12:16:15;28.00;74.60
40053;DHT22;25758;48.200;16.338;2023-07-20T12:18:44;28.20;74.40
40053;DHT22;25758;48.200;16.338;2023-07-20T12:21:10;27.90;74.10
40053;DHT22;25758;48.200;16.338;2023-07-20T12:23:40;27.90;75.40
40053;DHT22;25758;48.200;16.338;2023-07-20T12:26:07;27.90;74.40
40053;DHT22;25758;48.200;16.338;2023-07-20T12:28:39;28.00;74.60
40053;DHT22;25758;48.200;16.338;2023-07-20T12:31:06;28.00;74.40
40053;DHT22;25758;48.200;16.338;2023-07-20T12:33:32;28.10;74.60
40053;DHT22;25758;48.200;16.338;2023-07-20T12:36:00;27.90;74.20
40053;DHT22;25758;48.200;16.338;2023-07-20T12:38:27;27.90;73.80
40053;DHT22;25758;48.200;16.338;2023-07-20T12:40:54;28.10;74.00
40053;DHT22;25758;48.200;16.338;2023-07-20T12:43:22;28.00;73.00
40053;DHT22;25758;48.200;16.338;2023-07-20T12:45:48;27.70;72.90
40053;DHT22;25758;48.200;16.338;2023-07-20T12:48:13;27.70;73.00
40053;DHT22;25758;48.200;16.338;2023-07-20T12:50:39;27.80;73.40
40053;DHT22;25758;48.200;16.338;2023-07-20T12:53:05;27.80;72.60
40053;DHT22;25758;48.200;16.338;2023-07-20T12:55:31;28.00;72.60
40053;DHT22;25758;48.200;16.338;2023-07-20T12:57:57;27.90;72.30
40053;DHT22;25758;48.200;16.338;2023-07-20T13:00:22;28.00;72.00
40053;DHT22;25758;48.200;16.338;2023-07-20T13:02:49;28.00;71.50
40053;DHT22;25758;48.200;16.338;2023-07-20T13:05:14;28.10;71.40
40053;DHT22;25758;48.200;16.338;2023-07-20T13:07:41;28.00;71.40
40053;DHT22;25758;48.200;16.338;2023-07-20T13:10:07;28.00;71.60
40053;DHT22;25758;48.200;16.338;2023-07-20T13:12:34;27.90;71.00
40053;DHT22;25758;48.200;16.338;2023-07-20T13:15:02;27.90;71.30
40053;DHT22;25758;48.200;16.338;2023-07-20T13:17:38;27.90;71.30
40053;DHT22;25758;48.200;16.338;2023-07-20T13:20:05;28.00;71.00
40053;DHT22;25758;48.200;16.338;2023-07-20T13:22:32;28.00;71.40
40053;DHT22;25758;48.200;16.338;2023-07-20T13:24:57;28.10;70.90
40053;DHT22;25758;48.200;16.338;2023-07-20T13:27:23;28.00;70.80
40053;DHT22;25758;48.200;16.338;2023-07-20T13:29:51;27.90;70.70
40053;DHT22;25758;48.200;16.338;2023-07-20T13:32:17;28.00;71.00
40053;DHT22;25758;48.200;16.338;2023-07-20T13:34:46;28.10;70.30
40053;DHT22;25758;48.200;16.338;2023-07-20T13:37:12;28.10;70.80
40053;DHT22;25758;48.200;16.338;2023-07-20T13:39:38;28.20;70.40
40053;DHT22;25758;48.200;16.338;2023-07-20T13:42:04;27.90;70.60
40053;DHT22;25758;48.200;16.338;2023-07-20T13:44:33;28.00;71.00
40053;DHT22;25758;48.200;16.338;2023-07-20T13:47:00;28.00;69.80
40053;DHT22;25758;48.200;16.338;2023-07-20T13:49:25;28.00;70.00
40053;DHT22;25758;48.200;16.338;2023-07-20T13:51:51;28.10;70.70
40053;DHT22;25758;48.200;16.338;2023-07-20T13:54:16;28.10;70.20
40053;DHT22;25758;48.200;16.338;2023-07-20T13:56:42;28.00;69.20
40053;DHT22;25758;48.200;16.338;2023-07-20T13:59:08;28.10;69.60
40053;DHT22;25758;48.200;16.338;2023-07-20T14:01:33;28.10;68.70
40053;DHT22;25758;48.200;16.338;2023-07-20T14:04:01;28.00;69.30
40053;DHT22;25758;48.200;16.338;2023-07-20T14:06:30;28.00;69.50
40053;DHT22;25758;48.200;16.338;2023-07-20T14:08:56;28.00;69.50
40053;DHT22;25758;48.200;16.338;2023-07-20T14:11:23;28.10;69.80
40053;DHT22;25758;48.200;16.338;2023-07-20T14:13:50;28.20;69.80
40053;DHT22;25758;48.200;16.338;2023-07-20T14:16:16;28.30;70.00
40053;DHT22;25758;48.200;16.338;2023-07-20T14:21:08;28.40;68.30
40053;DHT22;25758;48.200;16.338;2023-07-20T14:23:33;28.40;69.00
40053;DHT22;25758;48.200;16.338;2023-07-20T14:25:59;28.50;69.50
40053;DHT22;25758;48.200;16.338;2023-07-20T14:28:25;28.50;68.70
40053;DHT22;25758;48.200;16.338;2023-07-20T14:30:50;28.50;71.60
40053;DHT22;25758;48.200;16.338;2023-07-20T14:33:16;27.60;71.80
40053;DHT22;25758;48.200;16.338;2023-07-20T14:35:42;28.50;71.90
40053;DHT22;25758;48.200;16.338;2023-07-20T14:38:07;28.50;70.50
40053;DHT22;25758;48.200;16.338;2023-07-20T14:40:33;28.50;71.40
40053;DHT22;25758;48.200;16.338;2023-07-20T14:42:59;28.60;69.30
40053;DHT22;25758;48.200;16.338;2023-07-20T14:45:28;28.60;70.60
40053;DHT22;25758;48.200;16.338;2023-07-20T14:47:54;28.60;68.80
40053;DHT22;25758;48.200;16.338;2023-07-20T14:50:20;28.50;68.00
40053;DHT22;25758;48.200;16.338;2023-07-20T14:52:46;28.50;68.20
40053;DHT22;25758;48.200;16.338;2023-07-20T14:55:12;28.40;68.50
40053;DHT22;25758;48.200;16.338;2023-07-20T14:57:37;28.20;68.40
40053;DHT22;25758;48.200;16.338;2023-07-20T15:00:04;28.20;68.70
40053;DHT22;25758;48.200;16.338;2023-07-20T15:02:36;28.10;68.20
40053;DHT22;25758;48.200;16.338;2023-07-20T15:05:03;28.10;69.30
40053;DHT22;25758;48.200;16.338;2023-07-20T15:07:29;28.20;68.90
40053;DHT22;25758;48.200;16.338;2023-07-20T15:09:54;28.30;68.50
40053;DHT22;25758;48.200;16.338;2023-07-20T15:12:20;28.30;68.80
40053;DHT22;25758;48.200;16.338;2023-07-20T15:15:02;28.30;69.30
40053;DHT22;25758;48.200;16.338;2023-07-20T15:17:28;28.30;68.60
40053;DHT22;25758;48.200;16.338;2023-07-20T15:19:54;28.20;68.30
40053;DHT22;25758;48.200;16.338;2023-07-20T15:22:20;28.20;68.60
40053;DHT22;25758;48.200;16.338;2023-07-20T15:24:47;28.10;68.40
40053;DHT22;25758;48.200;16.338;2023-07-20T15:29:38;27.80;69.00
40053;DHT22;25758;48.200;16.338;2023-07-20T15:32:05;28.00;70.10
40053;DHT22;25758;48.200;16.338;2023-07-20T15:34:32;28.00;69.40
40053;DHT22;25758;48.200;16.338;2023-07-20T15:36:57;28.00;69.40
40053;DHT22;25758;48.200;16.338;2023-07-20T15:39:23;27.90;69.40
40053;DHT22;25758;48.200;16.338;2023-07-20T15:41:50;28.10;68.90
40053;DHT22;25758;48.200;16.338;2023-07-20T15:44:15;28.20;69.00
40053;DHT22;25758;48.200;16.338;2023-07-20T15:49:07;28.20;69.10